Flight Track Log - Related Links

Times and Time Zones

All times are in EDT time to prevent confusion due to time zone crossing. See the SKW6306 flight status page for this flight to view local times or setup timezone preferences in your user account.

Time Position Orientation Groundspeed Altitude Reporting Facility
EDT Latitude Longitude Course Direction KTS MPH feet Rate Location/Type
Sat 01:53:51 PM 39.9167 -104.6833 346° North 199 229 6,300  Level Denver TRACON
Sat 01:54:51 PM 39.9833 -104.6667 11° North 232 267 8,000 1,500 Climbing Denver TRACON
Sat 01:55:51 PM 40.0500 -104.6667 360° North 283 326 9,300 1,333 Climbing Denver TRACON
Sat 01:56:00 PM 40.1824 -104.7764 347° North  Level FlightAware Approximate
Sat 01:56:12 PM 40.0772 -104.6628 North 281 323 9,800  Level Denver Center
Sat 01:57:00 PM 40.2940 -104.8099 347° North  Level FlightAware Approximate
Sat 01:57:14 PM 40.1681 -104.6858 349° North 310 357 11,300  Level Denver Center
Sat 01:58:00 PM 40.4052 -104.8461 346° North  Level FlightAware Approximate
Sat 01:58:16 PM 40.2544 -104.7100 348° North 318 366 13,200  Level Denver Center
Sat 01:59:00 PM 40.5162 -104.8832 346° North  Level FlightAware Approximate
Sat 01:59:18 PM 40.3497 -104.7358 348° North 323 372 14,800  Level Denver Center
Sat 02:00:21 PM 40.4431 -104.7589 349° North 340 391 16,100 1,355 Climbing Denver Center
Sat 02:01:22 PM 40.5433 -104.7869 348° North 344 396 17,600 1,268 Climbing Denver Center
Sat 02:02:24 PM 40.6414 -104.8117 349° North 358 412 18,700 1,210 Climbing Denver Center
Sat 02:03:26 PM 40.7458 -104.8386 349° North 360 414 20,100 1,113 Climbing Denver Center
Sat 02:04:28 PM 40.8472 -104.8781 344° North 361 415 21,000 919 Climbing Denver Center
Sat 02:05:30 PM 40.9456 -104.9272 339° North 377 434 22,000 919 Climbing Denver Center
Sat 02:06:32 PM 41.0506 -104.9800 339° North 386 444 22,900 823 Climbing Denver Center
Sat 02:07:34 PM 41.1469 -105.0258 340° North 384 442 23,700 823 Climbing Denver Center
Sat 02:08:36 PM 41.2611 -105.0825 340° North 389 448 24,600 726 Climbing Denver Center
Sat 02:09:38 PM 41.3594 -105.1322 339° North 393 452 25,200 532 Climbing Denver Center
Sat 02:10:40 PM 41.4597 -105.1814 340° North 398 458 25,700 677 Climbing Denver Center
Sat 02:11:42 PM 41.5772 -105.2400 340° North 404 465 26,600 677 Climbing Denver Center
Sat 02:12:44 PM 41.6853 -105.2597 352° North 410 472 27,100 484 Climbing Denver Center
Sat 02:13:46 PM 41.8139 -105.2819 353° North 415 478 27,600 435 Climbing Denver Center
Sat 02:14:48 PM 41.9253 -105.3039 352° North 419 482 28,000 585 Climbing Denver Center
Sat 02:15:49 PM 42.0547 -105.3283 352° North 420 483 28,800 537 Climbing Denver Center
Sat 02:16:51 PM 42.1456 -105.3458 352° North 414 476 29,100 435 Climbing Denver Center
Sat 02:17:53 PM 42.2767 -105.3697 352° North 420 483 29,700 677 Climbing Denver Center
Sat 02:18:55 PM 42.4069 -105.3961 351° North 423 487 30,500 677 Climbing Denver Center
Sat 02:19:57 PM 42.5175 -105.4161 352° North 417 480 31,100 532 Climbing Denver Center
Sat 02:20:59 PM 42.6461 -105.4403 352° North 417 480 31,600 435 Climbing Denver Center
Sat 02:22:01 PM 42.7575 -105.4622 352° North 419 482 32,000 195 Climbing Denver Center
Sat 02:23:02 PM 42.8875 -105.4886 352° North 421 484 32,000  Level Denver Center
Sat 02:24:04 PM 43.0025 -105.5106 352° North 430 495 32,000  Level Denver Center
Sat 02:25:06 PM 43.1172 -105.5331 352° North 432 497 32,000  Level Denver Center
Sat 02:26:08 PM 43.2508 -105.5592 352° North 432 497 32,000  Level Denver Center
Sat 02:27:10 PM 43.3642 -105.5808 352° North 430 495 32,000  Level Denver Center
Sat 02:28:23 PM 43.4978 -105.6064 352° North 432 497 32,000  Level Denver Center
Sat 02:30:00 PM 43.7075 -105.6464 352° North 432 497 32,000  Level Salt Lake Center
Sat 02:30:27 PM 43.7625 -105.6583 351° North 429 494 32,000  Level Denver Center
Sat 02:31:29 PM 43.8758 -105.6811 352° North 427 491 32,000  Level Denver Center
Sat 02:32:31 PM 44.0067 -105.7072 352° North 426 490 32,000  Level Denver Center
Sat 02:33:33 PM 44.1192 -105.7292 352° North 425 489 32,000  Level Denver Center
Sat 02:34:35 PM 44.2492 -105.7583 351° North 423 487 32,000  Level Denver Center
Sat 02:35:37 PM 44.3611 -105.7800 352° North 424 488 32,000  Level Denver Center
Sat 02:36:13 PM 44.4375 -105.7944 352° North 425 489 32,000  Level Salt Lake Center
Sat 02:37:15 PM 44.5492 -105.8186 351° North 425 489 32,000  Level Salt Lake Center
Sat 02:38:17 PM 44.6806 -105.8447 352° North 426 490 32,000  Level Salt Lake Center
Sat 02:38:43 PM 44.7250 -105.8556 350° North 426 490 32,000  Level Denver Center
Sat 02:39:44 PM 44.8378 -105.8794 351° North 428 493 32,000  Level Denver Center
Sat 02:40:21 PM 44.9144 -105.8925 353° North 430 495 32,000  Level Salt Lake Center
Sat 02:40:46 PM 44.9708 -105.9064 350° North 432 497 32,000 207 Level Denver Center
Sat 02:41:48 PM 45.0825 -105.9300 352° North 428 493 32,300 424 Climbing Denver Center
Sat 02:42:25 PM 45.1586 -105.9453 352° North 428 493 32,700 606 Climbing Salt Lake Center
Sat 02:43:27 PM 45.2881 -105.9719 352° North 422 486 33,300 581 Climbing Salt Lake Center
Sat 02:44:29 PM 45.3956 -105.9947 352° North 413 475 33,900 339 Climbing Salt Lake Center
Sat 02:45:31 PM 45.5211 -106.0214 352° North 410 472 34,000 48 Climbing Salt Lake Center
Sat 02:46:33 PM 45.6314 -106.0456 351° North 416 479 34,000  Level Salt Lake Center
Sat 02:47:35 PM 45.7614 -106.0708 352° North 421 484 34,000  Level Salt Lake Center
Sat 02:48:37 PM 45.8694 -106.0917 352° North 416 479 34,000  Level Salt Lake Center
Sat 02:49:39 PM 45.9817 -106.1150 352° North 419 482 34,000  Level Salt Lake Center
Sat 02:50:41 PM 46.1158 -106.1436 352° North 429 494 34,000  Level Salt Lake Center
Sat 02:51:43 PM 46.2328 -106.1708 351° North 437 503 34,000  Level Salt Lake Center
Sat 02:52:45 PM 46.3664 -106.2003 351° North 437 503 34,000  Level Salt Lake Center
Sat 02:53:47 PM 46.4814 -106.2278 351° North 436 502 34,000  Level Salt Lake Center
Sat 02:54:49 PM 46.6144 -106.2578 351° North 436 502 34,000  Level Salt Lake Center
Sat 02:55:51 PM 46.7267 -106.2828 351° North 431 496 34,000  Level Salt Lake Center
Sat 02:56:53 PM 46.8592 -106.3142 351° North 430 495 34,000  Level Salt Lake Center
Sat 02:57:55 PM 46.9708 -106.3383 352° North 428 493 34,000  Level Salt Lake Center
Sat 02:58:57 PM 47.1022 -106.3692 351° North 427 491 34,000  Level Salt Lake Center
Sat 02:59:59 PM 47.2144 -106.3922 352° North 426 490 34,000  Level Salt Lake Center
Sat 03:01:01 PM 47.3444 -106.4242 351° North 424 488 34,000  Level Salt Lake Center
Sat 03:02:03 PM 47.4589 -106.4506 351° North 423 487 34,000  Level Salt Lake Center
Sat 03:03:05 PM 47.5742 -106.4761 351° North 419 482 34,000  Level Salt Lake Center
Sat 03:04:07 PM 47.6897 -106.5044 351° North 420 483 34,000  Level Salt Lake Center
Sat 03:05:09 PM 47.8056 -106.5300 352° North 420 483 34,000  Level Salt Lake Center
Sat 03:06:11 PM 47.9211 -106.5581 351° North 421 484 34,000  Level Salt Lake Center
Sat 03:07:13 PM 48.0614 -106.5906 351° North 424 488 34,000  Level Salt Lake Center
Sat 03:08:15 PM 48.1769 -106.6181 351° North 422 486 34,000  Level Salt Lake Center
Sat 03:09:17 PM 48.2900 -106.6619 346° North 421 484 34,000  Level Salt Lake Center
Sat 03:10:19 PM 48.4000 -106.7181 341° North 419 482 34,000  Level Salt Lake Center
Sat 03:11:21 PM 48.5086 -106.7714 342° North 415 478 34,000  Level Salt Lake Center
Sat 03:12:23 PM 48.6200 -106.8264 342° North 417 480 34,000  Level Salt Lake Center
Sat 03:13:25 PM 48.7303 -106.8817 342° North 418 481 34,000  Level Salt Lake Center
Sat 03:14:27 PM 48.8617 -106.9472 342° North 417 480 34,000  Level Salt Lake Center
Sat 03:15:29 PM 48.9786 -106.9614 355° North 421 484 34,000  Level Salt Lake Center
Sat 03:16:31 PM 49.1011 -106.9433 North 433 498 34,000  Level Salt Lake Center
Sat 03:17:33 PM 49.2208 -106.9256 North 434 499 34,000  Level Salt Lake Center
Sat 03:18:30 PM 49.3167 -106.9500 351° North 430 495 34,000  Level Winnipeg Center
Sat 03:19:30 PM 49.4500 -106.9167 North 430 495 34,000  Level Winnipeg Center
Sat 03:20:30 PM 49.5667 -106.8833 10° North 430 495 34,000  Level Winnipeg Center
Sat 03:21:30 PM 49.6833 -106.8833 360° North 440 506 34,000  Level Winnipeg Center
Sat 03:22:30 PM 49.8000 -106.8667 North 440 506 34,000  Level Winnipeg Center
Sat 03:23:30 PM 49.9167 -106.8333 10° North 430 495 34,000  Level Winnipeg Center
Sat 03:24:30 PM 50.0333 -106.8333 360° North 430 495 34,000  Level Winnipeg Center
Sat 03:25:30 PM 50.1833 -106.8167 North 430 495 34,000  Level Winnipeg Center
Sat 03:26:30 PM 50.2833 -106.7833 12° North 430 495 34,000  Level Winnipeg Center
Sat 03:27:30 PM 50.4000 -106.7833 360° North 430 495 34,000  Level Winnipeg Center
Sat 03:28:30 PM 50.5167 -106.7500 10° North 430 495 34,000  Level Winnipeg Center
Sat 03:29:30 PM 50.6500 -106.7333 North 430 495 34,000  Level Winnipeg Center
Sat 03:30:30 PM 50.7500 -106.7167 North 430 495 34,000 -800 Level Winnipeg Center
Sat 03:31:30 PM 50.8833 -106.7000 North 440 506 32,400 -2,300 Descending Winnipeg Center
Sat 03:32:30 PM 51.0000 -106.6667 10° North 430 495 29,400 -3,150 Descending Winnipeg Center
Sat 03:33:30 PM 51.1167 -106.6667 360° North 430 495 26,100 -3,150 Descending Winnipeg Center
Sat 03:34:30 PM 51.2333 -106.6333 10° North 420 483 23,100 -2,950 Descending Winnipeg Center
Sat 03:35:30 PM 51.3500 -106.6000 10° North 410 472 20,200 -2,900 Descending Winnipeg Center
Sat 03:36:30 PM 51.4500 -106.6000 360° North 390 449 17,300 -2,750 Descending Winnipeg Center
Sat 03:37:30 PM 51.5500 -106.6000 360° North 370 426 14,700 -2,500 Descending Winnipeg Center
Sat 03:38:30 PM 51.6500 -106.5667 12° North 350 403 12,300 -1,850 Descending Winnipeg Center
Sat 03:39:30 PM 51.7500 -106.5500 North 320 368 11,000 -1,200 Descending Winnipeg Center
Sat 03:40:30 PM 51.8167 -106.5500 360° North 280 322 9,900 -1,200 Descending Winnipeg Center
Sat 03:41:30 PM 51.8833 -106.5333 North 250 288 8,600 -1,300 Descending Winnipeg Center
Sat 03:42:30 PM 51.9500 -106.5167 North 230 265 7,300 -1,550 Descending Winnipeg Center
Sat 03:43:30 PM 52.0000 -106.5000 12° North 230 265 5,500 -1,600 Descending Winnipeg Center
Sat 03:44:30 PM 52.0667 -106.4833 North 240 276 4,100 -800 Descending Winnipeg Center
Sat 03:45:30 PM 52.1167 -106.5000 348° North 170 196 3,900 -400 Descending Winnipeg Center
Sat 03:46:30 PM 52.1333 -106.5333 309° West 120 138 3,300 -350 Descending Winnipeg Center
Sat 03:47:30 PM 52.1500 -106.5833 299° West 100 115 3,200 -250 Descending Winnipeg Center
Sat 03:48:30 PM 52.1500 -106.6167 270° West 100 115 2,800 -500 Descending Winnipeg Center
Sat 03:49:30 PM 52.1500 -106.6667 270° West 120 138 2,200 -550 Descending Winnipeg Center
Sat 03:50:30 PM 52.1500 -106.7333 270° West 120 138 1,700 -500 Descending Winnipeg Center

Login

Don't have an account? Register now (free) for customized features, flight alerts, and more!